<?xml version="1.0" encoding="UTF-8" standalone="no" ?>
<gpx xmlns="http://www.topografix.com/GPX/1/1" xmlns:xsi="http://www.w3.org/2001/XMLSchema-instance" xsi:schemaLocation="http://www.topografix.com/GPX/1/1 http://www.topografix.com/GPX/1/1/gpx.xsd" version="1.1" creator="VisuGPX - https://www.visugpx.com">
  <metadata>
    <name>Vacances 2021</name>
  </metadata>
  <trk>
    <name><![CDATA[Journal actif: 2021-07-29 18:12]]></name>
    <trkseg>
      <trkpt lat="49.34307" lon="-0.6922">
        <ele>66.95</ele>
        <time>2021-07-29T20:12:55Z</time>
      </trkpt>
      <trkpt lat="49.34308" lon="-0.69247">
        <ele>67.43</ele>
        <time>2021-07-29T20:13:05Z</time>
      </trkpt>
      <trkpt lat="49.3431" lon="-0.69341">
        <ele>68.39</ele>
        <time>2021-07-29T20:13:15Z</time>
      </trkpt>
      <trkpt lat="49.34317" lon="-0.69415">
        <ele>68.87</ele>
        <time>2021-07-29T20:13:21Z</time>
      </trkpt>
      <trkpt lat="49.34318" lon="-0.69427">
        <ele>68.87</ele>
        <time>2021-07-29T20:13:22Z</time>
      </trkpt>
      <trkpt lat="49.34299" lon="-0.69541">
        <ele>68.87</ele>
        <time>2021-07-29T20:13:32Z</time>
      </trkpt>
      <trkpt lat="49.34276" lon="-0.6968">
        <ele>68.39</ele>
        <time>2021-07-29T20:13:44Z</time>
      </trkpt>
      <trkpt lat="49.34251" lon="-0.69888">
        <ele>64.07</ele>
        <time>2021-07-29T20:13:58Z</time>
      </trkpt>
      <trkpt lat="49.3425" lon="-0.69901">
        <ele>64.07</ele>
        <time>2021-07-29T20:13:59Z</time>
      </trkpt>
      <trkpt lat="49.34249" lon="-0.69912">
        <ele>63.58</ele>
        <time>2021-07-29T20:14:00Z</time>
      </trkpt>
      <trkpt lat="49.34242" lon="-0.69922">
        <ele>63.58</ele>
        <time>2021-07-29T20:14:01Z</time>
      </trkpt>
      <trkpt lat="49.34237" lon="-0.69923">
        <ele>63.58</ele>
        <time>2021-07-29T20:14:02Z</time>
      </trkpt>
      <trkpt lat="49.34231" lon="-0.69926">
        <ele>63.58</ele>
        <time>2021-07-29T20:14:03Z</time>
      </trkpt>
      <trkpt lat="49.34225" lon="-0.69928">
        <ele>63.58</ele>
        <time>2021-07-29T20:14:04Z</time>
      </trkpt>
      <trkpt lat="49.34128" lon="-0.69961">
        <ele>64.55</ele>
        <time>2021-07-29T20:14:15Z</time>
      </trkpt>
      <trkpt lat="49.33939" lon="-0.70027">
        <ele>61.18</ele>
        <time>2021-07-29T20:14:30Z</time>
      </trkpt>
      <trkpt lat="49.33799" lon="-0.70075">
        <ele>58.3</ele>
        <time>2021-07-29T20:14:41Z</time>
      </trkpt>
      <trkpt lat="49.33782" lon="-0.70081">
        <ele>58.78</ele>
        <time>2021-07-29T20:14:45Z</time>
      </trkpt>
      <trkpt lat="49.33772" lon="-0.70068">
        <ele>58.78</ele>
        <time>2021-07-29T20:14:46Z</time>
      </trkpt>
      <trkpt lat="49.33772" lon="-0.70068">
        <ele>58.3</ele>
        <time>2021-07-29T20:14:47Z</time>
      </trkpt>
      <trkpt lat="49.33738" lon="-0.69939">
        <ele>54.45</ele>
        <time>2021-07-29T20:14:57Z</time>
      </trkpt>
      <trkpt lat="49.33714" lon="-0.69806">
        <ele>51.57</ele>
        <time>2021-07-29T20:15:07Z</time>
      </trkpt>
      <trkpt lat="49.33699" lon="-0.69716">
        <ele>49.65</ele>
        <time>2021-07-29T20:15:16Z</time>
      </trkpt>
      <trkpt lat="49.33698" lon="-0.69713">
        <ele>51.09</ele>
        <time>2021-07-29T20:15:28Z</time>
      </trkpt>
      <trkpt lat="49.33698" lon="-0.69714">
        <ele>51.09</ele>
        <time>2021-07-29T20:15:29Z</time>
      </trkpt>
      <trkpt lat="49.33696" lon="-0.69715">
        <ele>51.09</ele>
        <time>2021-07-29T20:15:30Z</time>
      </trkpt>
      <trkpt lat="49.33693" lon="-0.69717">
        <ele>51.09</ele>
        <time>2021-07-29T20:15:31Z</time>
      </trkpt>
      <trkpt lat="49.33689" lon="-0.6972">
        <ele>50.61</ele>
        <time>2021-07-29T20:15:32Z</time>
      </trkpt>
      <trkpt lat="49.33632" lon="-0.69759">
        <ele>49.16</ele>
        <time>2021-07-29T20:15:43Z</time>
      </trkpt>
      <trkpt lat="49.33626" lon="-0.69757">
        <ele>49.16</ele>
        <time>2021-07-29T20:15:44Z</time>
      </trkpt>
      <trkpt lat="49.33611" lon="-0.69751">
        <ele>48.68</ele>
        <time>2021-07-29T20:15:48Z</time>
      </trkpt>
      <trkpt lat="49.33604" lon="-0.69766">
        <ele>48.68</ele>
        <time>2021-07-29T20:15:49Z</time>
      </trkpt>
      <trkpt lat="49.33604" lon="-0.69771">
        <ele>48.68</ele>
        <time>2021-07-29T20:15:50Z</time>
      </trkpt>
      <trkpt lat="49.33591" lon="-0.69867">
        <ele>50.13</ele>
        <time>2021-07-29T20:15:58Z</time>
      </trkpt>
      <trkpt lat="49.33553" lon="-0.70052">
        <ele>53.49</ele>
        <time>2021-07-29T20:16:09Z</time>
      </trkpt>
      <trkpt lat="49.33509" lon="-0.70286">
        <ele>53.97</ele>
        <time>2021-07-29T20:16:20Z</time>
      </trkpt>
      <trkpt lat="49.33508" lon="-0.70306">
        <ele>53.01</ele>
        <time>2021-07-29T20:16:21Z</time>
      </trkpt>
      <trkpt lat="49.33521" lon="-0.70502">
        <ele>52.05</ele>
        <time>2021-07-29T20:16:31Z</time>
      </trkpt>
      <trkpt lat="49.33535" lon="-0.70646">
        <ele>47.72</ele>
        <time>2021-07-29T20:16:40Z</time>
      </trkpt>
      <trkpt lat="49.33543" lon="-0.70674">
        <ele>47.24</ele>
        <time>2021-07-29T20:16:41Z</time>
      </trkpt>
      <trkpt lat="49.33543" lon="-0.70674">
        <ele>46.76</ele>
        <time>2021-07-29T20:16:42Z</time>
      </trkpt>
      <trkpt lat="49.33613" lon="-0.70831">
        <ele>48.68</ele>
        <time>2021-07-29T20:16:53Z</time>
      </trkpt>
      <trkpt lat="49.33667" lon="-0.71011">
        <ele>51.57</ele>
        <time>2021-07-29T20:17:04Z</time>
      </trkpt>
      <trkpt lat="49.33726" lon="-0.7122">
        <ele>56.86</ele>
        <time>2021-07-29T20:17:16Z</time>
      </trkpt>
      <trkpt lat="49.33745" lon="-0.71307">
        <ele>58.78</ele>
        <time>2021-07-29T20:17:21Z</time>
      </trkpt>
      <trkpt lat="49.33751" lon="-0.71321">
        <ele>59.26</ele>
        <time>2021-07-29T20:17:22Z</time>
      </trkpt>
      <trkpt lat="49.33758" lon="-0.71334">
        <ele>59.26</ele>
        <time>2021-07-29T20:17:23Z</time>
      </trkpt>
      <trkpt lat="49.33766" lon="-0.71347">
        <ele>60.22</ele>
        <time>2021-07-29T20:17:24Z</time>
      </trkpt>
      <trkpt lat="49.33774" lon="-0.7136">
        <ele>62.14</ele>
        <time>2021-07-29T20:17:25Z</time>
      </trkpt>
      <trkpt lat="49.33801" lon="-0.7141">
        <ele>63.58</ele>
        <time>2021-07-29T20:17:29Z</time>
      </trkpt>
      <trkpt lat="49.33857" lon="-0.71559">
        <ele>63.58</ele>
        <time>2021-07-29T20:17:41Z</time>
      </trkpt>
      <trkpt lat="49.33917" lon="-0.71773">
        <ele>66.47</ele>
        <time>2021-07-29T20:17:55Z</time>
      </trkpt>
      <trkpt lat="49.3391" lon="-0.7199">
        <ele>67.91</ele>
        <time>2021-07-29T20:18:06Z</time>
      </trkpt>
      <trkpt lat="49.33907" lon="-0.72028">
        <ele>66.95</ele>
        <time>2021-07-29T20:18:08Z</time>
      </trkpt>
      <trkpt lat="49.33905" lon="-0.72044">
        <ele>66.47</ele>
        <time>2021-07-29T20:18:09Z</time>
      </trkpt>
      <trkpt lat="49.339" lon="-0.72052">
        <ele>66.47</ele>
        <time>2021-07-29T20:18:10Z</time>
      </trkpt>
      <trkpt lat="49.33895" lon="-0.72059">
        <ele>66.47</ele>
        <time>2021-07-29T20:18:11Z</time>
      </trkpt>
      <trkpt lat="49.33891" lon="-0.72063">
        <ele>66.47</ele>
        <time>2021-07-29T20:18:12Z</time>
      </trkpt>
      <trkpt lat="49.33885" lon="-0.72063">
        <ele>66.95</ele>
        <time>2021-07-29T20:18:13Z</time>
      </trkpt>
      <trkpt lat="49.33878" lon="-0.72063">
        <ele>66.95</ele>
        <time>2021-07-29T20:18:14Z</time>
      </trkpt>
      <trkpt lat="49.33845" lon="-0.72062">
        <ele>65.99</ele>
        <time>2021-07-29T20:18:18Z</time>
      </trkpt>
      <trkpt lat="49.33836" lon="-0.72062">
        <ele>65.99</ele>
        <time>2021-07-29T20:18:19Z</time>
      </trkpt>
      <trkpt lat="49.33825" lon="-0.72061">
        <ele>65.03</ele>
        <time>2021-07-29T20:18:20Z</time>
      </trkpt>
      <trkpt lat="49.33819" lon="-0.7207">
        <ele>64.55</ele>
        <time>2021-07-29T20:18:21Z</time>
      </trkpt>
      <trkpt lat="49.33813" lon="-0.72079">
        <ele>64.07</ele>
        <time>2021-07-29T20:18:22Z</time>
      </trkpt>
      <trkpt lat="49.33809" lon="-0.72093">
        <ele>64.07</ele>
        <time>2021-07-29T20:18:23Z</time>
      </trkpt>
      <trkpt lat="49.33805" lon="-0.72107">
        <ele>64.07</ele>
        <time>2021-07-29T20:18:24Z</time>
      </trkpt>
      <trkpt lat="49.33803" lon="-0.72124">
        <ele>63.58</ele>
        <time>2021-07-29T20:18:25Z</time>
      </trkpt>
      <trkpt lat="49.33779" lon="-0.72292">
        <ele>61.66</ele>
        <time>2021-07-29T20:18:33Z</time>
      </trkpt>
      <trkpt lat="49.33729" lon="-0.725">
        <ele>62.14</ele>
        <time>2021-07-29T20:18:41Z</time>
      </trkpt>
      <trkpt lat="49.33686" lon="-0.72705">
        <ele>62.62</ele>
        <time>2021-07-29T20:18:48Z</time>
      </trkpt>
      <trkpt lat="49.33672" lon="-0.73018">
        <ele>62.62</ele>
        <time>2021-07-29T20:18:59Z</time>
      </trkpt>
      <trkpt lat="49.33697" lon="-0.73275">
        <ele>59.26</ele>
        <time>2021-07-29T20:19:09Z</time>
      </trkpt>
      <trkpt lat="49.33717" lon="-0.73428">
        <ele>47.24</ele>
        <time>2021-07-29T20:19:19Z</time>
      </trkpt>
      <trkpt lat="49.33726" lon="-0.73477">
        <ele>44.36</ele>
        <time>2021-07-29T20:19:22Z</time>
      </trkpt>
      <trkpt lat="49.33726" lon="-0.73489">
        <ele>44.36</ele>
        <time>2021-07-29T20:19:23Z</time>
      </trkpt>
      <trkpt lat="49.33726" lon="-0.735">
        <ele>43.4</ele>
        <time>2021-07-29T20:19:24Z</time>
      </trkpt>
      <trkpt lat="49.33725" lon="-0.73511">
        <ele>42.92</ele>
        <time>2021-07-29T20:19:25Z</time>
      </trkpt>
      <trkpt lat="49.33722" lon="-0.73523">
        <ele>41.95</ele>
        <time>2021-07-29T20:19:26Z</time>
      </trkpt>
      <trkpt lat="49.33719" lon="-0.73536">
        <ele>41.47</ele>
        <time>2021-07-29T20:19:27Z</time>
      </trkpt>
      <trkpt lat="49.33714" lon="-0.73548">
        <ele>41.47</ele>
        <time>2021-07-29T20:19:28Z</time>
      </trkpt>
      <trkpt lat="49.33707" lon="-0.73559">
        <ele>41.47</ele>
        <time>2021-07-29T20:19:29Z</time>
      </trkpt>
      <trkpt lat="49.337" lon="-0.7357">
        <ele>40.99</ele>
        <time>2021-07-29T20:19:30Z</time>
      </trkpt>
      <trkpt lat="49.33649" lon="-0.73655">
        <ele>34.26</ele>
        <time>2021-07-29T20:19:37Z</time>
      </trkpt>
      <trkpt lat="49.33644" lon="-0.73667">
        <ele>33.3</ele>
        <time>2021-07-29T20:19:38Z</time>
      </trkpt>
      <trkpt lat="49.3364" lon="-0.73695">
        <ele>32.34</ele>
        <time>2021-07-29T20:19:39Z</time>
      </trkpt>
      <trkpt lat="49.3364" lon="-0.73695">
        <ele>31.38</ele>
        <time>2021-07-29T20:19:40Z</time>
      </trkpt>
      <trkpt lat="49.33639" lon="-0.7371">
        <ele>29.46</ele>
        <time>2021-07-29T20:19:41Z</time>
      </trkpt>
      <trkpt lat="49.33639" lon="-0.73722">
        <ele>28.02</ele>
        <time>2021-07-29T20:19:42Z</time>
      </trkpt>
      <trkpt lat="49.33642" lon="-0.73741">
        <ele>27.05</ele>
        <time>2021-07-29T20:19:43Z</time>
      </trkpt>
      <trkpt lat="49.33642" lon="-0.73741">
        <ele>26.57</ele>
        <time>2021-07-29T20:19:44Z</time>
      </trkpt>
      <trkpt lat="49.33653" lon="-0.7375">
        <ele>26.09</ele>
        <time>2021-07-29T20:19:45Z</time>
      </trkpt>
      <trkpt lat="49.33653" lon="-0.7375">
        <ele>25.13</ele>
        <time>2021-07-29T20:19:46Z</time>
      </trkpt>
      <trkpt lat="49.3366" lon="-0.7375">
        <ele>24.65</ele>
        <time>2021-07-29T20:19:47Z</time>
      </trkpt>
      <trkpt lat="49.33668" lon="-0.7375">
        <ele>23.69</ele>
        <time>2021-07-29T20:19:48Z</time>
      </trkpt>
      <trkpt lat="49.33676" lon="-0.73748">
        <ele>23.21</ele>
        <time>2021-07-29T20:19:49Z</time>
      </trkpt>
      <trkpt lat="49.33804" lon="-0.73697">
        <ele>15.04</ele>
        <time>2021-07-29T20:20:02Z</time>
      </trkpt>
      <trkpt lat="49.33813" lon="-0.73692">
        <ele>16</ele>
        <time>2021-07-29T20:20:03Z</time>
      </trkpt>
      <trkpt lat="49.33822" lon="-0.73688">
        <ele>15.52</ele>
        <time>2021-07-29T20:20:04Z</time>
      </trkpt>
      <trkpt lat="49.33852" lon="-0.7367">
        <ele>16</ele>
        <time>2021-07-29T20:20:08Z</time>
      </trkpt>
      <trkpt lat="49.33858" lon="-0.73669">
        <ele>15.52</ele>
        <time>2021-07-29T20:20:09Z</time>
      </trkpt>
      <trkpt lat="49.33864" lon="-0.7367">
        <ele>15.52</ele>
        <time>2021-07-29T20:20:10Z</time>
      </trkpt>
      <trkpt lat="49.33868" lon="-0.73671">
        <ele>15.04</ele>
        <time>2021-07-29T20:20:11Z</time>
      </trkpt>
      <trkpt lat="49.33873" lon="-0.73677">
        <ele>15.04</ele>
        <time>2021-07-29T20:20:12Z</time>
      </trkpt>
      <trkpt lat="49.33879" lon="-0.73682">
        <ele>15.04</ele>
        <time>2021-07-29T20:20:13Z</time>
      </trkpt>
      <trkpt lat="49.33885" lon="-0.73689">
        <ele>14.56</ele>
        <time>2021-07-29T20:20:14Z</time>
      </trkpt>
      <trkpt lat="49.33902" lon="-0.73706">
        <ele>14.08</ele>
        <time>2021-07-29T20:20:17Z</time>
      </trkpt>
      <trkpt lat="49.33907" lon="-0.73713">
        <ele>14.08</ele>
        <time>2021-07-29T20:20:18Z</time>
      </trkpt>
      <trkpt lat="49.33912" lon="-0.73723">
        <ele>14.08</ele>
        <time>2021-07-29T20:20:19Z</time>
      </trkpt>
      <trkpt lat="49.33917" lon="-0.73732">
        <ele>13.6</ele>
        <time>2021-07-29T20:20:20Z</time>
      </trkpt>
      <trkpt lat="49.33922" lon="-0.73742">
        <ele>13.12</ele>
        <time>2021-07-29T20:20:21Z</time>
      </trkpt>
      <trkpt lat="49.33976" lon="-0.7387">
        <ele>7.35</ele>
        <time>2021-07-29T20:20:30Z</time>
      </trkpt>
      <trkpt lat="49.34095" lon="-0.74148">
        <ele>2.06</ele>
        <time>2021-07-29T20:20:44Z</time>
      </trkpt>
      <trkpt lat="49.34117" lon="-0.74183">
        <ele>1.1</ele>
        <time>2021-07-29T20:20:46Z</time>
      </trkpt>
      <trkpt lat="49.34125" lon="-0.74199">
        <ele>-0.34</ele>
        <time>2021-07-29T20:20:47Z</time>
      </trkpt>
      <trkpt lat="49.34137" lon="-0.7424">
        <ele>-0.34</ele>
        <time>2021-07-29T20:20:48Z</time>
      </trkpt>
      <trkpt lat="49.34194" lon="-0.74483">
        <ele>-1.3</ele>
        <time>2021-07-29T20:21:01Z</time>
      </trkpt>
      <trkpt lat="49.3426" lon="-0.74765">
        <ele>-3.71</ele>
        <time>2021-07-29T20:21:18Z</time>
      </trkpt>
      <trkpt lat="49.34302" lon="-0.75044">
        <ele>-2.75</ele>
        <time>2021-07-29T20:21:35Z</time>
      </trkpt>
      <trkpt lat="49.34331" lon="-0.75215">
        <ele>-1.79</ele>
        <time>2021-07-29T20:21:48Z</time>
      </trkpt>
      <trkpt lat="49.34346" lon="-0.75258">
        <ele>-0.82</ele>
        <time>2021-07-29T20:21:53Z</time>
      </trkpt>
      <trkpt lat="49.34346" lon="-0.75261">
        <ele>-0.82</ele>
        <time>2021-07-29T20:21:54Z</time>
      </trkpt>
      <trkpt lat="49.34361" lon="-0.75385">
        <ele>2.54</ele>
        <time>2021-07-29T20:22:04Z</time>
      </trkpt>
      <trkpt lat="49.34368" lon="-0.75428">
        <ele>4.94</ele>
        <time>2021-07-29T20:22:07Z</time>
      </trkpt>
      <trkpt lat="49.34368" lon="-0.75439">
        <ele>5.42</ele>
        <time>2021-07-29T20:22:08Z</time>
      </trkpt>
      <trkpt lat="49.34368" lon="-0.75451">
        <ele>6.39</ele>
        <time>2021-07-29T20:22:09Z</time>
      </trkpt>
      <trkpt lat="49.34366" lon="-0.75519">
        <ele>7.35</ele>
        <time>2021-07-29T20:22:18Z</time>
      </trkpt>
      <trkpt lat="49.34366" lon="-0.75548">
        <ele>8.79</ele>
        <time>2021-07-29T20:22:33Z</time>
      </trkpt>
      <trkpt lat="49.34369" lon="-0.75653">
        <ele>11.19</ele>
        <time>2021-07-29T20:22:42Z</time>
      </trkpt>
      <trkpt lat="49.34395" lon="-0.75788">
        <ele>11.67</ele>
        <time>2021-07-29T20:22:51Z</time>
      </trkpt>
      <trkpt lat="49.344" lon="-0.75817">
        <ele>11.19</ele>
        <time>2021-07-29T20:22:57Z</time>
      </trkpt>
      <trkpt lat="49.34401" lon="-0.75848">
        <ele>11.67</ele>
        <time>2021-07-29T20:23:04Z</time>
      </trkpt>
      <trkpt lat="49.34402" lon="-0.75859">
        <ele>11.67</ele>
        <time>2021-07-29T20:23:06Z</time>
      </trkpt>
      <trkpt lat="49.34402" lon="-0.75864">
        <ele>12.15</ele>
        <time>2021-07-29T20:23:07Z</time>
      </trkpt>
      <trkpt lat="49.34408" lon="-0.75865">
        <ele>11.67</ele>
        <time>2021-07-29T20:23:08Z</time>
      </trkpt>
      <trkpt lat="49.34448" lon="-0.75884">
        <ele>9.75</ele>
        <time>2021-07-29T20:23:17Z</time>
      </trkpt>
      <trkpt lat="49.34453" lon="-0.75887">
        <ele>9.27</ele>
        <time>2021-07-29T20:23:18Z</time>
      </trkpt>
      <trkpt lat="49.34458" lon="-0.75887">
        <ele>9.27</ele>
        <time>2021-07-29T20:23:19Z</time>
      </trkpt>
      <trkpt lat="49.3447" lon="-0.75883">
        <ele>9.27</ele>
        <time>2021-07-29T20:23:20Z</time>
      </trkpt>
      <trkpt lat="49.34476" lon="-0.75879">
        <ele>9.27</ele>
        <time>2021-07-29T20:23:21Z</time>
      </trkpt>
      <trkpt lat="49.34476" lon="-0.75879">
        <ele>9.27</ele>
        <time>2021-07-29T20:23:22Z</time>
      </trkpt>
      <trkpt lat="49.34482" lon="-0.75874">
        <ele>9.27</ele>
        <time>2021-07-29T20:23:23Z</time>
      </trkpt>
      <trkpt lat="49.34535" lon="-0.75821">
        <ele>9.27</ele>
        <time>2021-07-29T20:23:35Z</time>
      </trkpt>
    </trkseg>
  </trk>
</gpx>